Time;durP1;ratioP1;P1;durP2;ratioP2;P2;SDS_P1;SDS_P2;PMS_P1;PMS_P2;Temp;Humidity;BMP_temperature;BMP_pressure;BME280_temperature;BME280_humidity;BME280_pressure;Samples;Min_cycle;Max_cycle;Signal;HPM_P1;HPM_P2
2022/07/11 00:04:25;;;;;;;1.70;0.40;;;16.20;66.60;;;14.58;53.97;100299.09;10404225;28;96680;-92
2022/07/11 00:09:29;;;;;;;2.03;0.70;;;16.00;67.30;;;14.45;54.52;100296.25;10363236;28;96793;-91
2022/07/11 00:14:32;;;;;;;2.58;0.70;;;15.80;68.00;;;14.32;54.82;100293.44;10378555;28;96469;-93
2022/07/11 00:19:36;;;;;;;1.48;0.55;;;15.70;68.50;;;14.24;55.30;100298.91;10381153;28;97051;-91
2022/07/11 00:24:39;;;;;;;1.60;0.50;;;15.60;68.90;;;14.16;55.70;100290.00;10363396;28;97060;-92
2022/07/11 00:29:43;;;;;;;1.60;0.50;;;15.60;69.20;;;14.09;55.90;100283.78;10404347;28;96458;-93
2022/07/11 00:34:46;;;;;;;0.97;0.50;;;15.50;69.20;;;14.08;56.02;100283.94;10401685;28;96593;-93
2022/07/11 00:39:49;;;;;;;1.85;0.65;;;15.50;69.30;;;14.06;56.42;100284.13;10379144;28;96443;-94
2022/07/11 00:44:53;;;;;;;2.83;0.80;;;15.50;69.50;;;13.97;56.54;100287.09;10384047;28;97049;-93
2022/07/11 00:49:56;;;;;;;2.10;0.70;;;15.40;69.90;;;13.92;57.08;100280.50;10397737;28;96847;-94
2022/07/11 00:54:59;;;;;;;1.60;0.63;;;15.30;70.40;;;13.88;57.14;100289.06;10395550;28;96979;-91
2022/07/11 01:00:04;;;;;;;1.93;0.50;;;15.30;70.50;;;13.89;57.41;100299.53;10387328;28;96500;-93
2022/07/11 01:05:07;;;;;;;1.83;0.50;;;15.30;70.60;;;13.84;57.55;100287.75;10381687;28;96540;-92
2022/07/11 01:10:10;;;;;;;3.03;0.60;;;15.30;70.50;;;13.83;57.71;100291.44;10388614;28;97814;-93
2022/07/11 01:15:16;;;;;;;2.37;0.77;;;15.30;70.40;;;13.85;57.98;100294.75;10384279;28;96837;-93
2022/07/11 01:20:23;;;;;;;1.53;0.50;;;15.30;70.80;;;13.84;57.97;100298.44;10393231;28;96800;-93
2022/07/11 01:25:32;;;;;;;1.87;0.60;;;15.30;71.10;;;13.92;58.19;100301.03;10410471;28;96544;-95
2022/07/11 01:30:35;;;;;;;1.50;0.50;;;15.30;71.20;;;13.91;58.28;100296.69;10385066;28;96767;-93
2022/07/11 01:35:38;;;;;;;1.90;0.80;;;15.40;71.40;;;13.91;58.33;100288.66;10384170;28;97220;-92
2022/07/11 01:40:41;;;;;;;1.43;0.60;;;15.30;71.90;;;13.91;58.58;100280.66;10402051;28;96706;-90
2022/07/11 01:45:44;;;;;;;1.80;0.50;;;15.30;72.40;;;13.95;58.84;100295.28;10385474;28;96435;-94
2022/07/11 01:50:49;;;;;;;0.93;0.60;;;15.30;72.60;;;13.95;59.08;100291.81;10400963;28;96731;-91
2022/07/11 01:55:52;;;;;;;2.92;0.60;;;15.20;73.20;;;13.91;59.40;100283.31;10383665;28;96706;-94
2022/07/11 02:01:16;;;;;;;1.83;0.80;;;15.20;73.50;;;13.90;59.34;100287.84;10390443;28;96801;-93
2022/07/11 02:06:19;;;;;;;2.23;0.73;;;15.20;73.70;;;13.89;59.49;100288.03;10414449;27;96947;-91
2022/07/11 02:11:23;;;;;;;2.17;0.60;;;15.20;73.70;;;13.88;59.75;100283.72;10360471;28;96585;-92
2022/07/11 02:16:26;;;;;;;5.13;0.93;;;15.10;74.00;;;13.92;59.76;100287.69;10366180;28;96640;-93
2022/07/11 02:21:29;;;;;;;3.37;0.70;;;15.20;74.20;;;13.92;59.90;100274.31;10383608;28;96551;-93
2022/07/11 02:26:32;;;;;;;3.33;0.80;;;15.20;74.30;;;13.99;59.65;100279.72;10399228;28;98611;-93
2022/07/11 02:31:35;;;;;;;3.07;0.70;;;15.20;74.30;;;13.99;59.78;100291.25;10404755;28;96562;-92
2022/07/11 02:36:38;;;;;;;2.10;0.80;;;15.20;74.50;;;13.91;60.16;100288.66;10390263;28;96645;-92
2022/07/11 02:41:42;;;;;;;4.20;0.90;;;15.20;74.70;;;13.94;60.24;100290.97;10370533;28;97039;-94
2022/07/11 02:46:45;;;;;;;2.73;0.90;;;15.20;75.00;;;13.90;60.54;100293.19;10408318;28;96456;-95
2022/07/11 02:51:48;;;;;;;3.27;0.80;;;15.20;75.20;;;13.92;60.80;100293.84;10396760;28;97122;-93
2022/07/11 02:56:51;;;;;;;1.60;0.80;;;15.20;75.40;;;13.91;60.62;100277.97;10408895;28;97352;-94
2022/07/11 03:01:54;;;;;;;2.80;0.80;;;15.20;75.50;;;13.98;60.37;100284.25;10392108;28;96991;-93
2022/07/11 03:06:57;;;;;;;2.90;0.93;;;15.30;75.50;;;14.02;60.44;100290.03;10371067;28;98257;-94
2022/07/11 03:12:01;;;;;;;3.47;0.80;;;15.30;75.60;;;13.99;60.43;100288.56;10395534;28;96585;-94
2022/07/11 03:17:04;;;;;;;4.90;0.90;;;15.30;75.60;;;13.97;60.64;100287.09;10380920;28;97575;-93
2022/07/11 03:22:07;;;;;;;2.57;1.00;;;15.30;75.80;;;13.92;60.81;100279.66;10388347;28;96903;-92
2022/07/11 03:27:11;;;;;;;3.53;1.00;;;15.20;76.10;;;13.97;61.12;100281.75;10365587;28;97059;-91
2022/07/11 03:32:15;;;;;;;3.43;0.70;;;15.20;76.40;;;13.96;61.16;100285.44;10381580;28;96833;-92
2022/07/11 03:37:18;;;;;;;2.20;0.77;;;15.20;76.50;;;13.97;61.04;100279.91;10390302;28;96570;-94
2022/07/11 03:42:22;;;;;;;1.97;0.90;;;15.30;76.60;;;14.00;61.20;100292.91;10406218;28;96668;-92
2022/07/11 03:47:25;;;;;;;2.20;0.77;;;15.30;76.80;;;14.09;61.29;100301.63;10388730;28;96713;-94
2022/07/11 03:52:28;;;;;;;2.10;0.73;;;15.30;76.60;;;14.14;61.10;100294.69;10429191;27;96910;-94
2022/07/11 03:57:33;;;;;;;2.93;0.90;;;15.40;76.60;;;14.24;60.89;100289.06;10401437;28;96810;-91
2022/07/11 04:02:36;;;;;;;1.90;0.80;;;15.50;76.70;;;14.33;60.64;100295.09;10368169;28;96609;-89
2022/07/11 04:07:40;;;;;;;3.10;1.17;;;15.60;77.00;;;14.45;60.40;100298.91;10401308;28;96709;-92
2022/07/11 04:12:44;;;;;;;1.90;0.80;;;15.70;76.10;;;14.53;60.07;100308.72;10369864;28;97761;-92
2022/07/11 04:17:47;;;;;;;2.63;0.70;;;15.70;75.80;;;14.57;59.78;100305.44;10371475;28;96561;-91
2022/07/11 04:22:50;;;;;;;2.93;1.03;;;15.80;75.60;;;14.59;59.49;100294.59;10387629;27;96717;-92
2022/07/11 04:27:53;;;;;;;5.68;0.80;;;15.90;75.30;;;14.67;59.31;100284.56;10385937;28;96653;-89
2022/07/11 04:32:56;;;;;;;2.53;0.80;;;15.90;75.00;;;14.90;58.25;100307.59;10385630;27;96976;-91
2022/07/11 04:37:59;;;;;;;1.70;0.65;;;16.10;74.20;;;15.09;57.93;100296.22;10389044;28;96677;-93
2022/07/11 04:43:04;;;;;;;5.03;1.15;;;16.30;73.70;;;15.31;57.19;100302.34;10385779;28;96670;-92
2022/07/11 04:48:07;;;;;;;1.00;0.52;;;16.50;73.00;;;15.47;56.63;100301.19;10383759;28;96567;-92
2022/07/11 04:53:11;;;;;;;3.10;1.00;;;16.70;72.60;;;15.69;56.00;100315.38;10369573;27;96686;-92
2022/07/11 04:58:14;;;;;;;2.10;0.82;;;16.90;72.00;;;15.89;55.50;100312.78;10383876;27;96861;-92
2022/07/11 05:03:19;;;;;;;4.70;1.00;;;17.10;71.40;;;16.07;55.05;100318.41;10381728;28;96943;-93
2022/07/11 05:08:22;;;;;;;3.92;0.95;;;17.30;71.00;;;16.28;54.28;100326.34;10387551;28;96567;-93
2022/07/11 05:13:25;;;;;;;4.35;0.75;;;17.50;70.30;;;16.42;54.01;100323.69;10381322;28;96474;-94
2022/07/11 05:18:29;;;;;;;3.08;0.80;;;17.60;69.90;;;16.58;54.49;100336.72;10384954;28;96686;-92
2022/07/11 05:23:32;;;;;;;2.33;0.70;;;17.80;70.00;;;16.79;53.48;100338.41;10385979;28;96637;-93
2022/07/11 05:28:35;;;;;;;3.30;0.90;;;18.00;69.30;;;16.97;52.63;100340.50;10376221;28;97943;-90
2022/07/11 05:33:38;;;;;;;4.55;1.10;;;18.20;68.40;;;17.07;52.67;100340.91;10401220;28;97337;-88
2022/07/11 05:38:41;;;;;;;1.10;0.63;;;18.30;68.30;;;17.20;52.48;100342.78;10359127;28;96724;-94
2022/07/11 05:43:44;;;;;;;1.65;0.55;;;18.40;68.10;;;17.35;51.48;100338.84;10363298;28;96538;-95
2022/07/11 05:48:47;;;;;;;3.88;0.90;;;18.60;67.40;;;17.53;50.79;100329.31;10390879;27;97113;-94
2022/07/11 05:53:58;;;;;;;;;;;18.70;66.30;;;17.64;49.48;100326.81;10389452;28;97237;-94
2022/07/11 05:59:01;;;;;;;2.90;0.70;;;18.90;65.00;;;17.83;49.31;100340.44;10387971;28;96635;-96
2022/07/11 06:04:04;;;;;;;1.48;0.70;;;19.00;65.00;;;17.95;48.82;100348.66;10389858;28;96635;-95
2022/07/11 06:09:07;;;;;;;3.00;0.80;;;19.10;64.30;;;18.04;48.86;100342.00;10388940;27;96413;-93
2022/07/11 06:14:10;;;;;;;2.90;0.68;;;19.20;64.40;;;18.18;48.85;100343.59;10389212;28;96685;-94
2022/07/11 06:19:14;;;;;;;2.60;0.70;;;19.40;64.40;;;18.25;47.99;100343.56;10391281;28;96510;-94
2022/07/11 06:24:18;;;;;;;3.35;0.50;;;19.50;63.80;;;18.52;47.96;100345.06;10387695;28;96414;-94
2022/07/11 06:29:21;;;;;;;3.50;0.93;;;19.70;63.80;;;18.80;46.88;100358.16;10360852;28;96490;-93
2022/07/11 06:34:24;;;;;;;2.95;0.68;;;20.00;62.50;;;19.16;46.73;100349.41;10385239;28;97455;-91
2022/07/11 06:39:27;;;;;;;4.57;0.80;;;20.30;62.20;;;19.48;45.89;100352.00;10402473;28;96502;-93
2022/07/11 06:44:31;;;;;;;3.45;0.65;;;20.70;61.90;;;19.63;45.24;100357.91;10407759;28;96522;-94
2022/07/11 06:49:34;;;;;;;1.98;0.80;;;20.80;60.90;;;19.53;44.83;100358.38;10403871;28;96387;-93
2022/07/11 06:54:37;;;;;;;1.75;0.70;;;20.70;60.60;;;19.41;45.09;100357.47;10401467;28;96450;-92
2022/07/11 06:59:40;;;;;;;3.47;0.95;;;20.70;60.60;;;19.12;44.56;100367.03;10369042;28;97716;-95
2022/07/11 07:04:43;;;;;;;4.57;0.80;;;20.40;60.20;;;18.89;45.88;100385.63;10386580;28;96455;-95
2022/07/11 07:09:46;;;;;;;2.63;0.77;;;20.20;61.20;;;18.67;46.38;100379.81;10382295;28;96584;-95
2022/07/11 07:14:50;;;;;;;2.55;0.90;;;19.90;61.80;;;18.48;47.04;100386.09;10361838;28;97038;-95
2022/07/11 07:19:53;;;;;;;4.82;0.73;;;19.70;62.30;;;18.27;47.62;100385.34;10400099;27;98406;-92
2022/07/11 07:24:57;;;;;;;3.42;0.90;;;19.40;63.10;;;18.22;48.00;100384.34;10403193;28;96522;-94
2022/07/11 07:30:00;;;;;;;1.63;0.80;;;19.40;63.70;;;18.15;48.67;100379.81;10365993;28;96524;-92
2022/07/11 07:35:03;;;;;;;2.88;0.90;;;19.40;64.10;;;18.22;48.95;100379.78;10365400;28;96514;-92
2022/07/11 07:40:07;;;;;;;1.73;0.75;;;19.40;64.70;;;18.31;49.14;100381.19;10431063;28;96504;-93
2022/07/11 07:45:10;;;;;;;4.75;0.80;;;19.50;64.60;;;18.43;48.20;100384.03;10411692;28;96235;-95
2022/07/11 07:50:13;;;;;;;2.85;0.65;;;19.60;64.30;;;18.58;48.52;100381.06;10390406;28;96415;-94
2022/07/11 07:55:16;;;;;;;4.40;1.10;;;19.70;63.90;;;18.61;47.52;100378.75;10390678;28;96555;-94
2022/07/11 08:05:41;;;;;;;2.95;0.85;;;19.80;63.50;;;18.78;47.92;100372.91;10409209;28;96491;-93
2022/07/11 08:11:04;;;;;;;2.65;0.98;;;20.00;63.50;;;19.04;47.64;100369.19;10404733;28;96543;-93
2022/07/11 08:16:28;;;;;;;4.00;0.93;;;20.10;63.50;;;19.43;45.99;100358.09;10411665;28;96462;-94
2022/07/11 08:21:34;;;;;;;4.57;0.90;;;20.50;62.20;;;19.52;44.99;100361.28;10392525;28;96436;-96
2022/07/11 08:26:37;;;;;;;3.72;0.80;;;20.70;60.50;;;19.46;45.63;100356.81;10416514;28;96326;-94
2022/07/11 08:31:40;;;;;;;4.07;0.70;;;20.60;60.80;;;19.60;45.61;100352.13;10396915;27;96425;-95
2022/07/11 08:36:46;;;;;;;3.20;0.90;;;20.70;60.90;;;19.88;44.24;100338.97;10420960;27;96486;-95
2022/07/11 08:41:50;;;;;;;4.03;0.70;;;21.10;59.80;;;20.21;41.98;100332.31;10428964;28;95571;-96
2022/07/11 08:46:56;;;;;;;2.95;0.77;;;21.30;58.10;;;20.28;40.29;100338.47;10434533;28;96323;-96
2022/07/11 08:51:59;;;;;;;2.78;0.80;;;21.50;55.90;;;20.16;40.57;100334.91;10338541;28;96643;-94
2022/07/11 08:57:05;;;;;;;2.63;0.50;;;21.40;56.00;;;20.18;40.80;100322.81;10359549;28;96529;-96
2022/07/11 09:02:10;;;;;;;2.33;0.65;;;21.40;56.20;;;20.44;40.92;100318.91;10390459;28;96343;-96
2022/07/11 09:07:14;;;;;;;1.85;0.70;;;21.60;56.20;;;20.82;39.64;100305.09;10351839;28;96327;-96
2022/07/11 09:12:19;;;;;;;2.50;0.70;;;22.00;55.20;;;21.07;38.21;100313.00;10342244;28;96431;-94
2022/07/11 09:17:30;;;;;;;4.03;0.80;;;22.30;53.60;;;21.29;37.47;100304.31;10384583;28;96459;-95
2022/07/11 09:28:05;;;;;;;2.25;0.73;;;22.60;50.90;;;21.67;34.38;100286.78;10382043;28;96595;-96
2022/07/11 09:33:12;;;;;;;3.58;0.70;;;22.80;49.40;;;21.74;34.42;100271.22;10399579;28;96483;-94
2022/07/11 09:38:17;;;;;;;4.57;0.65;;;22.90;49.50;;;21.95;34.13;100281.41;10348524;28;96641;-93
2022/07/11 09:43:26;;;;;;;2.70;1.00;;;23.00;48.90;;;22.11;34.25;100279.81;10343043;28;96627;-96
2022/07/11 09:48:29;;;;;;;3.63;0.90;;;23.20;49.20;;;22.15;34.03;100281.00;10349760;28;96352;-95
2022/07/11 09:53:32;;;;;;;3.08;0.80;;;23.30;49.30;;;22.26;33.11;100279.31;10407450;28;96458;-95
2022/07/11 09:58:36;;;;;;;4.70;1.55;;;23.30;48.10;;;22.47;34.01;100285.91;10390850;28;96858;-94
2022/07/11 10:03:39;;;;;;;2.70;0.70;;;23.50;48.90;;;22.58;32.99;100264.16;10391108;28;96663;-93
2022/07/11 10:09:02;;;;;;;6.25;1.30;;;23.60;48.10;;;22.76;33.21;100278.53;10379093;28;96479;-95
2022/07/11 10:14:07;;;;;;;3.13;0.85;;;23.80;48.30;;;22.82;32.62;100280.25;10395182;28;96409;-96
2022/07/11 10:19:47;;;;;;;2.70;0.93;;;23.90;47.60;;;22.58;32.10;100293.13;10366259;28;96375;-96
2022/07/11 10:25:32;;;;;;;4.15;0.80;;;23.70;46.90;;;22.04;33.22;100282.66;10382983;28;96325;-96
2022/07/11 10:30:44;;;;;;;4.70;0.90;;;23.20;47.90;;;21.74;33.54;100290.16;10392347;28;97239;-95
2022/07/11 10:35:50;;;;;;;5.47;0.98;;;22.90;48.60;;;21.72;34.64;100268.78;10403348;28;96359;-94
2022/07/11 10:40:57;;;;;;;3.67;0.70;;;22.90;49.30;;;21.79;33.26;100276.75;10380948;28;96453;-95
2022/07/11 10:46:03;;;;;;;4.72;1.05;;;22.90;48.40;;;21.66;33.74;100260.78;10344547;28;97100;-94
2022/07/11 10:51:16;;;;;;;3.08;0.73;;;22.80;48.40;;;21.64;33.43;100267.25;10363581;28;96543;-91
2022/07/11 10:57:08;;;;;;;3.65;0.90;;;22.80;48.10;;;21.61;33.81;100259.63;10408178;27;96464;-94
2022/07/11 11:02:12;;;;;;;;;;;22.80;48.10;;;21.48;33.66;100257.19;10398648;28;96437;-96
2022/07/11 11:07:46;;;;;;;3.58;0.93;;;22.60;48.30;;;21.42;33.54;100257.31;10397203;28;96426;-96
2022/07/11 11:13:11;;;;;;;5.10;0.82;;;22.60;47.80;;;21.42;33.83;100270.84;10426466;27;96535;-94
2022/07/11 11:18:24;;;;;;;4.57;1.00;;;22.50;48.20;;;21.33;33.05;100263.06;10433941;28;96489;-96
2022/07/11 11:23:44;;;;;;;4.90;0.73;;;22.50;47.50;;;21.26;33.46;100250.72;10422453;28;96436;-96
2022/07/11 11:29:06;;;;;;;4.95;1.00;;;22.40;47.80;;;21.32;33.44;100276.81;10417443;28;96586;-96
2022/07/11 11:34:10;;;;;;;4.63;1.15;;;22.40;48.20;;;21.25;34.10;100257.19;10388183;28;96372;-96
2022/07/11 11:39:26;;;;;;;5.45;1.00;;;22.40;48.40;;;21.82;33.87;100244.59;10380524;28;96569;-96
2022/07/11 11:44:31;;;;;;;4.50;0.63;;;22.80;48.20;;;22.58;32.73;100253.34;10370058;28;96870;-95
2022/07/11 11:49:47;;;;;;;3.25;1.00;;;23.50;47.70;;;23.22;31.46;100245.69;10372869;28;96401;-95
2022/07/11 11:54:56;;;;;;;3.83;0.80;;;24.20;45.90;;;23.69;30.72;100245.25;10377966;28;96290;-96
2022/07/11 12:00:01;;;;;;;3.33;1.02;;;24.70;45.60;;;24.10;29.34;100253.81;10393040;28;96448;-96
2022/07/11 12:05:08;;;;;;;4.93;0.82;;;25.10;44.40;;;24.10;29.78;100251.09;10377762;28;96548;-96
2022/07/11 12:10:14;;;;;;;3.15;1.05;;;25.20;44.70;;;24.06;30.09;100255.41;10400107;28;96612;-95
2022/07/11 12:21:15;;;;;;;2.65;1.00;;;25.30;44.80;;;24.23;28.62;100241.72;10419649;28;96420;-96
2022/07/11 12:26:18;;;;;;;4.80;0.90;;;25.30;43.30;;;23.77;28.39;100252.91;10441921;22;97045;-84
2022/07/11 12:31:21;;;;;;;3.22;0.98;;;24.90;43.10;;;23.54;29.85;100253.16;10440999;27;96544;-85
2022/07/11 12:36:33;;;;;;;3.88;0.90;;;24.60;44.70;;;23.54;30.47;100244.19;10442849;27;97109;-85
2022/07/11 12:41:36;;;;;;;3.15;0.80;;;24.50;45.20;;;23.88;30.69;100243.00;10441252;27;96833;-85
2022/07/11 12:46:40;;;;;;;5.55;0.90;;;24.90;45.40;;;24.26;30.09;100242.03;10442163;27;96956;-85
2022/07/11 12:51:46;;;;;;;3.53;0.80;;;25.20;44.80;;;24.53;29.84;100233.91;10425087;27;96552;-87
2022/07/11 12:56:54;;;;;;;3.22;1.00;;;25.50;44.80;;;24.75;29.61;100225.63;10443277;27;97539;-86
2022/07/11 13:02:03;;;;;;;3.78;0.80;;;25.70;44.80;;;25.05;30.10;100224.22;10441373;27;96632;-84
2022/07/11 13:12:54;;;;;;;10.40;0.80;;;26.50;41.70;;;25.43;26.84;100217.66;10444192;27;96629;-86
2022/07/11 13:17:57;;;;;;;2.67;0.80;;;26.50;41.70;;;25.31;27.02;100223.31;10424273;27;96524;-85
2022/07/11 13:23:02;;;;;;;3.42;0.70;;;26.40;41.70;;;25.39;27.38;100213.00;10439213;27;96518;-85
2022/07/11 13:28:07;;;;;;;3.47;0.60;;;26.50;42.10;;;25.04;27.50;100223.38;10423147;27;97274;-86
2022/07/11 13:33:11;;;;;;;4.00;1.20;;;26.20;42.10;;;24.42;28.27;100244.94;10433703;27;96629;-84
2022/07/11 13:38:15;;;;;;;6.57;0.90;;;25.60;42.70;;;23.80;29.26;100234.50;10438994;27;96705;-86
2022/07/11 13:43:18;;;;;;;4.80;0.70;;;25.00;43.80;;;23.30;30.03;100244.44;10422824;27;96464;-87
2022/07/11 13:48:21;;;;;;;4.47;0.80;;;24.40;44.60;;;23.03;31.03;100246.19;10439242;27;97581;-84
2022/07/11 13:53:24;;;;;;;2.92;0.77;;;24.10;45.30;;;23.15;31.37;100242.34;10420031;27;96452;-88
2022/07/11 13:58:29;;;;;;;4.10;0.77;;;24.20;45.60;;;23.48;30.64;100237.88;10409807;27;96696;-85
2022/07/11 14:03:33;;;;;;;5.90;1.15;;;24.70;44.90;;;23.31;31.15;100239.81;10422312;27;96664;-83
2022/07/11 14:08:36;;;;;;;6.00;0.93;;;24.50;45.40;;;23.19;32.11;100248.88;10440066;27;96556;-86
2022/07/11 14:13:39;;;;;;;4.47;1.33;;;24.40;46.30;;;23.02;32.87;100236.44;10438144;27;96484;-88
2022/07/11 14:18:42;;;;;;;2.65;0.85;;;24.20;47.20;;;23.36;33.14;100234.47;10422555;27;96600;-87
2022/07/11 14:23:45;;;;;;;5.43;0.88;;;24.50;47.50;;;23.89;31.92;100235.69;10433589;27;96546;-88
2022/07/11 14:28:49;;;;;;;5.07;1.00;;;25.20;46.10;;;24.41;31.31;100237.84;10398556;27;97543;-87
2022/07/11 14:33:54;;;;;;;4.65;0.90;;;25.70;45.50;;;24.80;30.43;100230.28;10418432;27;96624;-91
2022/07/11 14:38:59;;;;;;;4.45;0.90;;;26.20;44.90;;;25.03;28.17;100226.38;10440567;27;96618;-92
2022/07/11 14:44:02;;;;;;;3.83;0.60;;;26.40;42.80;;;25.30;28.58;100224.38;10434128;27;98683;-95
2022/07/11 14:49:06;;;;;;;6.00;0.98;;;26.70;42.90;;;25.44;28.92;100216.56;10415735;27;98587;-87
2022/07/11 14:54:12;;;;;;;2.28;1.23;;;26.80;43.20;;;25.68;28.76;100214.19;10430501;27;97418;-89
2022/07/11 14:59:16;;;;;;;4.53;0.90;;;27.00;43.30;;;25.60;28.53;100209.25;10437975;27;97136;-88
2022/07/11 15:04:19;;;;;;;5.30;1.10;;;26.90;43.10;;;25.51;28.33;100217.13;10421324;27;96569;-92
2022/07/11 15:14:43;;;;;;;4.00;1.25;;;26.60;42.90;;;25.27;29.05;100222.19;10440323;27;96663;-82
2022/07/11 15:19:47;;;;;;;4.57;1.20;;;26.40;43.70;;;25.17;29.90;100224.84;10450373;27;97130;-85
2022/07/11 15:24:51;;;;;;;3.47;0.70;;;26.20;44.40;;;25.03;29.09;100223.66;10419922;27;96749;-85
2022/07/11 15:29:54;;;;;;;5.00;0.77;;;26.00;43.70;;;24.76;28.85;100231.88;10411143;27;97849;-89
2022/07/11 15:34:57;;;;;;;3.53;1.08;;;25.70;43.50;;;24.55;28.82;100234.44;10451366;27;96681;-88
2022/07/11 15:40:00;;;;;;;1.98;0.68;;;25.50;43.30;;;24.44;29.54;100230.00;10451758;27;96496;-87
2022/07/11 15:45:09;;;;;;;4.65;1.00;;;25.40;44.00;;;24.45;29.81;100236.25;10426804;27;97405;-87
2022/07/11 15:50:12;;;;;;;2.42;0.80;;;25.40;44.40;;;24.39;28.76;100221.81;10443633;27;97393;-87
2022/07/11 15:55:15;;;;;;;4.47;0.90;;;25.40;43.20;;;24.43;28.91;100228.38;10455560;27;96790;-87
2022/07/11 16:00:20;;;;;;;3.33;0.95;;;25.40;43.40;;;24.47;29.29;100234.94;10438270;27;97021;-87
2022/07/11 16:05:23;;;;;;;3.58;1.02;;;25.40;43.60;;;24.62;28.86;100236.94;10415892;27;96780;-90
2022/07/11 16:10:26;;;;;;;4.30;0.95;;;25.60;43.20;;;24.56;28.10;100224.41;10441748;27;96687;-88
2022/07/11 16:15:30;;;;;;;4.97;1.50;;;25.60;42.40;;;24.57;27.59;100228.75;10422277;27;96777;-86
2022/07/11 16:20:33;;;;;;;1.90;0.50;;;25.60;41.90;;;24.39;28.07;100223.72;10436972;27;98608;-91
2022/07/11 16:25:36;;;;;;;2.35;0.93;;;25.40;42.30;;;24.45;27.23;100230.81;10418583;27;97189;-87
2022/07/11 16:30:39;;;;;;;5.30;0.75;;;25.50;41.40;;;24.44;27.17;100229.19;10437561;27;97136;-86
2022/07/11 16:35:42;;;;;;;4.72;0.80;;;25.50;41.70;;;24.40;27.90;100228.06;10441317;27;96519;-88
2022/07/11 16:46:09;;;;;;;3.75;0.70;;;25.40;41.90;;;24.05;28.31;100226.63;10437296;27;96635;-93
2022/07/11 16:51:15;;;;;;;6.75;1.02;;;25.10;42.20;;;23.84;28.89;100224.78;10426999;27;96580;-91
2022/07/11 16:56:19;;;;;;;5.35;1.50;;;24.90;42.90;;;23.73;29.36;100221.94;10408445;27;97420;-93
2022/07/11 17:01:23;;;;;;;5.82;1.42;;;24.80;43.80;;;23.71;30.18;100215.94;10426169;27;96599;-94
2022/07/11 17:06:26;;;;;;;2.20;1.10;;;24.80;44.30;;;23.73;30.23;100229.25;10440960;27;96541;-94
2022/07/11 17:11:29;;;;;;;8.90;1.27;;;24.80;44.50;;;23.65;30.32;100224.28;10426706;27;97388;-94
2022/07/11 17:16:33;;;;;;;3.55;1.10;;;24.70;44.40;;;23.45;30.53;100241.94;10448018;27;96388;-95
2022/07/11 17:21:37;;;;;;;5.80;1.00;;;24.50;44.50;;;23.20;30.99;100250.50;10444549;27;96596;-94
2022/07/11 17:26:40;;;;;;;4.18;0.90;;;24.30;45.10;;;23.05;31.44;100258.44;10425915;27;96603;-96
2022/07/11 17:31:49;;;;;;;2.80;0.60;;;24.10;45.30;;;22.82;31.74;100253.19;10426949;27;96779;-92
2022/07/11 17:36:52;;;;;;;5.90;0.98;;;24.00;45.50;;;22.63;32.07;100252.59;10441964;27;96413;-93
2022/07/11 17:41:55;;;;;;;1.95;0.55;;;23.80;45.80;;;22.51;32.20;100249.97;10424022;27;97188;-92
2022/07/11 17:46:58;;;;;;;2.08;0.90;;;23.70;45.90;;;22.28;32.33;100266.34;10425646;27;96645;-93
2022/07/11 17:52:01;;;;;;;4.63;1.05;;;23.50;46.10;;;21.98;32.90;100256.56;10423602;27;97476;-92
2022/07/11 17:57:05;;;;;;;2.67;0.73;;;23.20;46.50;;;21.74;32.95;100269.34;10429316;27;97508;-93
2022/07/11 18:02:10;;;;;;;1.75;0.60;;;22.90;46.70;;;21.54;33.00;100271.63;10424356;27;96631;-93
2022/07/11 18:07:13;;;;;;;3.17;0.70;;;22.70;46.50;;;21.41;32.94;100275.41;10404772;27;96524;-93
2022/07/11 18:12:18;;;;;;;1.60;0.60;;;22.50;46.60;;;21.32;32.88;100284.94;10454224;27;96783;-94
2022/07/11 18:17:26;;;;;;;1.92;0.57;;;22.50;46.60;;;21.25;33.20;100295.03;10416431;27;96615;-83
2022/07/11 18:22:29;;;;;;;1.67;0.52;;;22.40;46.60;;;21.16;33.24;100291.84;10437215;27;97016;-82
2022/07/11 18:27:32;;;;;;;1.52;0.60;;;22.30;46.70;;;21.00;33.24;100287.97;10435915;27;97297;-82
2022/07/11 18:32:36;;;;;;;2.00;0.65;;;22.20;46.50;;;20.92;33.42;100306.38;10414100;27;97322;-82
2022/07/11 18:37:39;;;;;;;2.35;0.60;;;22.10;46.60;;;20.82;33.79;100310.50;10420814;27;97516;-82
2022/07/11 18:42:42;;;;;;;2.53;0.70;;;22.00;46.80;;;20.73;33.95;100313.75;10444391;27;97489;-83
2022/07/11 18:47:45;;;;;;;2.05;0.40;;;21.90;46.80;;;20.67;33.74;100317.38;10460794;27;96871;-96
2022/07/11 18:52:48;;;;;;;1.00;0.50;;;21.80;46.90;;;20.55;34.02;100312.75;10475995;27;96532;-96
2022/07/11 18:58:00;;;;;;;2.78;0.60;;;21.70;47.10;;;20.47;34.43;100323.91;10436737;27;96732;-90
2022/07/11 19:03:03;;;;;;;3.25;0.65;;;21.70;47.40;;;20.39;34.67;100329.59;10441432;27;96722;-90
2022/07/11 19:08:07;;;;;;;3.30;1.08;;;21.60;47.70;;;20.30;34.97;100330.97;10410726;27;96639;-84
2022/07/11 19:13:10;;;;;;;2.50;0.60;;;21.50;48.00;;;20.26;34.87;100348.66;10420527;27;96607;-83
2022/07/11 19:18:13;;;;;;;3.17;0.60;;;21.50;48.40;;;20.14;35.67;100342.38;10456936;27;100042;-85
2022/07/11 19:23:16;;;;;;;3.33;0.82;;;21.40;48.60;;;20.08;35.44;100359.47;10432062;27;96657;-85
2022/07/11 19:28:19;;;;;;;1.63;0.60;;;21.30;48.90;;;20.00;36.08;100369.53;10424377;27;96832;-90
2022/07/11 19:33:22;;;;;;;3.45;0.73;;;21.20;49.10;;;19.92;36.36;100377.09;10412308;27;96506;-92
2022/07/11 19:38:26;;;;;;;3.40;0.50;;;21.20;49.30;;;19.82;36.69;100382.19;10424684;27;96724;-90
2022/07/11 19:43:29;;;;;;;2.88;0.63;;;21.10;49.60;;;19.76;36.93;100389.28;10422957;27;98312;-91
2022/07/11 19:48:32;;;;;;;5.63;0.70;;;21.00;49.80;;;19.61;37.04;100386.13;10430543;27;96554;-93
2022/07/11 19:53:35;;;;;;;3.97;0.90;;;20.90;50.10;;;19.49;37.46;100397.63;10443513;27;96703;-92
2022/07/11 19:58:51;;;;;;;2.88;0.80;;;20.80;50.30;;;19.40;37.47;100412.41;10407055;27;96838;-89
2022/07/11 20:03:55;;;;;;;1.80;0.63;;;20.70;50.60;;;19.18;38.19;100400.34;10392560;27;97988;-89
2022/07/11 20:08:58;;;;;;;3.22;1.00;;;20.60;50.80;;;18.91;38.86;100414.03;10436046;27;96967;-89
2022/07/11 20:14:01;;;;;;;3.05;0.70;;;20.40;51.30;;;18.74;39.16;100412.06;10421068;27;97607;-90
2022/07/11 20:19:04;;;;;;;4.63;0.77;;;20.20;51.70;;;18.51;39.40;100426.00;10424806;27;96629;-90
2022/07/11 20:24:07;;;;;;;1.23;0.47;;;19.90;52.00;;;18.33;40.26;100435.59;10354331;27;1381465;-91
2022/07/11 20:29:11;;;;;;;2.50;0.70;;;19.80;52.40;;;18.18;40.54;100435.88;10425626;27;96593;-90
2022/07/11 20:34:14;;;;;;;3.63;0.50;;;19.60;52.60;;;18.12;41.23;100449.34;10425161;27;96719;-89
2022/07/11 20:39:17;;;;;;;3.28;0.73;;;19.60;53.30;;;18.04;41.51;100463.00;10412919;27;96669;-89
2022/07/11 20:44:20;;;;;;;3.25;0.70;;;19.50;53.50;;;17.97;41.78;100470.25;10411239;27;96637;-90
2022/07/11 20:49:34;;;;;;;4.45;0.93;;;19.40;53.60;;;17.80;42.07;100464.47;10405247;27;98310;-91
2022/07/11 20:54:57;;;;;;;2.22;0.68;;;19.30;53.90;;;17.59;42.46;100469.03;10439231;27;96700;-94
2022/07/11 21:00:06;;;;;;;3.40;1.08;;;19.10;54.40;;;17.45;43.17;100471.91;10406869;27;96853;-91
2022/07/11 21:05:09;;;;;;;2.92;0.75;;;18.80;55.00;;;17.25;43.83;100483.47;10416357;27;96721;-91
2022/07/11 21:10:13;;;;;;;4.72;0.88;;;18.70;55.60;;;17.00;44.27;100477.84;10408874;27;97595;-94
2022/07/11 21:15:16;;;;;;;3.08;0.90;;;18.40;56.30;;;16.76;44.97;100481.91;10440526;27;96692;-93
2022/07/11 21:20:19;;;;;;;2.15;0.90;;;18.20;56.70;;;16.64;45.60;100491.53;10415538;27;98283;-93
2022/07/11 21:25:22;;;;;;;1.77;0.75;;;18.10;56.80;;;16.49;45.68;100482.78;10437276;27;97232;-93
2022/07/11 21:30:25;;;;;;;1.95;0.70;;;18.10;56.90;;;16.45;45.67;100497.63;10407380;27;96516;-93